Saiph Star — A8NB3 — position and weather

sailwx.info

Track history (hours):
 
Tides and Currents Weather Stations Pressure Air Temp Water Temp Dewpoint Dewpoint Depression Visibility Wind Speed Wind Dir Waves Ship Positions

Saiph Star

Last reported at 2014-Jul-08 06:30 UTC. Time now 2014-Jul-29 22:54 UTC.
Position S 34°38' E 018°13'.
Warning: this ship's position is 21 days out of date.

Length 333 m; draft 21.9 m.

Type: Ship (hazmat cat B). MMSI: 636013451.

Date/timePositionNaut miles runAvg speedWind from/ knotsBaromVisibWave heightAir tempDewpointWater temp
2014-Jul-08 06:30S 34°38' E 018°13'1513.2
2014-Jul-08 05:24S 34°45' E 018°29'1513.4
2014-Jul-08 04:17S 34°50' E 018°46'7312.7
2014-Jul-07 22:32S 35°10' E 020°12'37010.6
2014-Jul-06 11:33S 33°45' E 027°29'226 8.1
2014-Jul-05 07:32S 31°08' E 030°42'1313.4
2014-Jul-05 06:33S 30°59' E 030°53'1212.3
2014-Jul-05 05:33S 30°53' E 031°05'1212.1
2014-Jul-05 04:33S 30°52' E 031°19'1211.8
2014-Jul-05 03:31S 30°51' E 031°33'1212.2
2014-Jul-05 02:33S 30°50' E 031°47'  
Track history (hours):
 
Tides and Currents Weather Stations Pressure Air Temp Water Temp Dewpoint Dewpoint Depression Visibility Wind Speed Wind Dir Waves Ship Positions

Saiph Star

Last reported at 2014-Jul-08 06:30 UTC. Time now 2014-Jul-29 22:54 UTC.
Position S 34°38' E 018°13'.
Warning: this ship's position is 21 days out of date.

Length 333 m; draft 21.9 m.

Type: Ship (hazmat cat B). MMSI: 636013451.

Date/timePositionNaut miles runAvg speedWind from/ knotsBaromVisibWave heightAir tempDewpointWater temp
2014-Jul-08 06:30S 34°38' E 018°13'1513.2
2014-Jul-08 05:24S 34°45' E 018°29'1513.4
2014-Jul-08 04:17S 34°50' E 018°46'7312.7
2014-Jul-07 22:32S 35°10' E 020°12'37010.6
2014-Jul-06 11:33S 33°45' E 027°29'226 8.1
2014-Jul-05 07:32S 31°08' E 030°42'1313.4
2014-Jul-05 06:33S 30°59' E 030°53'1212.3
2014-Jul-05 05:33S 30°53' E 031°05'1212.1
2014-Jul-05 04:33S 30°52' E 031°19'1211.8
2014-Jul-05 03:31S 30°51' E 031°33'1212.2
2014-Jul-05 02:33S 30°50' E 031°47'  

Dump ship's entire track history